createdAt,value
2022-12-08T00:01:43.381Z,10.93
2022-12-08T00:07:04.769Z,11.07
2022-12-08T00:12:09.669Z,10.60
2022-12-08T00:17:16.426Z,10.70
2022-12-08T00:22:19.866Z,10.57
2022-12-08T00:27:23.305Z,10.66
2022-12-08T00:32:28.769Z,10.70
2022-12-08T00:37:32.145Z,9.88
2022-12-08T00:42:35.620Z,10.71
2022-12-08T00:47:40.428Z,10.38
2022-12-08T00:52:43.849Z,10.79
2022-12-08T00:57:47.278Z,10.58
2022-12-08T01:02:52.086Z,10.94
2022-12-08T01:07:55.563Z,10.83
2022-12-08T01:12:59.570Z,10.98
2022-12-08T01:18:04.435Z,10.92
2022-12-08T01:23:07.781Z,10.52
2022-12-08T01:28:11.255Z,10.68
2022-12-08T01:33:16.045Z,10.37
2022-12-08T01:38:23.742Z,10.76
2022-12-08T01:43:27.345Z,10.47
2022-12-08T01:48:32.393Z,10.25
2022-12-08T01:53:35.973Z,9.85
2022-12-08T01:58:42.809Z,10.34
2022-12-08T02:03:50.375Z,9.79
2022-12-08T02:08:55.155Z,10.06
2022-12-08T02:13:59.248Z,9.75
2022-12-08T02:19:32.331Z,10.29
2022-12-08T02:24:39.108Z,10.20
2022-12-08T02:30:07.954Z,10.02
2022-12-08T02:35:14.969Z,10.02
2022-12-08T02:40:23.921Z,9.98
2022-12-08T02:45:31.540Z,10.00
2022-12-08T02:50:36.419Z,10.12
2022-12-08T02:55:48.954Z,10.02
2022-12-08T03:01:12.929Z,10.39
2022-12-08T03:06:25.653Z,10.41
2022-12-08T03:11:35.720Z,10.44
2022-12-08T03:16:41.321Z,10.28
2022-12-08T03:21:50.977Z,10.36
2022-12-08T03:26:58.588Z,10.30
2022-12-08T03:32:06.916Z,10.69
2022-12-08T03:37:12.022Z,10.30
2022-12-08T03:42:15.541Z,10.50
2022-12-08T03:47:19.070Z,10.45
2022-12-08T03:52:23.967Z,10.17
2022-12-08T03:57:27.428Z,10.50
2022-12-08T04:02:30.946Z,10.21
2022-12-08T04:07:35.950Z,9.97
2022-12-08T04:12:39.517Z,10.05
2022-12-08T04:17:42.997Z,10.43
2022-12-08T04:22:47.922Z,10.48
2022-12-08T04:27:51.705Z,10.19
2022-12-08T04:32:55.517Z,10.19
2022-12-08T04:38:00.431Z,10.50
2022-12-08T04:43:04.041Z,10.47
2022-12-08T04:48:08.156Z,10.20
2022-12-08T04:53:14.113Z,10.60
2022-12-08T04:58:19.399Z,10.29
2022-12-08T05:03:28.461Z,9.89
2022-12-08T05:08:33.903Z,9.90
2022-12-08T05:13:37.649Z,10.18
2022-12-08T05:18:41.732Z,10.37
2022-12-08T05:23:46.635Z,9.74
2022-12-08T05:28:50.110Z,9.97
2022-12-08T05:33:54.033Z,10.13
2022-12-08T05:38:59.210Z,9.91
2022-12-08T05:44:02.772Z,10.26
2022-12-08T05:49:06.272Z,10.36
2022-12-08T05:54:11.190Z,10.47
2022-12-08T05:59:14.689Z,10.69
2022-12-08T06:04:18.273Z,10.61
2022-12-08T06:09:23.208Z,10.71
2022-12-08T06:14:26.726Z,10.29
2022-12-08T06:19:30.349Z,10.31
2022-12-08T06:24:35.381Z,10.07
2022-12-08T06:29:38.868Z,10.53
2022-12-08T06:34:42.329Z,10.21
2022-12-08T06:39:47.241Z,10.42
2022-12-08T06:44:51.578Z,10.48
2022-12-08T06:49:55.075Z,10.19
2022-12-08T06:55:00.018Z,10.63
2022-12-08T07:00:05.120Z,10.57
2022-12-08T07:05:09.175Z,10.46
2022-12-08T07:10:14.042Z,10.55
2022-12-08T07:15:17.774Z,10.13
2022-12-08T07:20:21.482Z,10.29
2022-12-08T07:25:26.716Z,9.99
2022-12-08T07:30:30.350Z,9.97
2022-12-08T07:35:35.184Z,10.42
2022-12-08T07:40:41.032Z,10.43
2022-12-08T07:45:44.571Z,10.45
2022-12-08T07:50:48.041Z,10.65
2022-12-08T07:55:52.817Z,10.32
2022-12-08T08:00:56.317Z,10.74
2022-12-08T08:06:03.844Z,10.51
2022-12-08T08:11:14.600Z,10.28
2022-12-08T08:16:22.600Z,10.61
2022-12-08T08:26:51.276Z,10.97
2022-12-08T08:31:55.969Z,10.91
2022-12-08T08:36:59.407Z,10.79
2022-12-08T08:42:04.296Z,10.55
2022-12-08T08:47:07.859Z,10.82
2022-12-08T08:52:11.632Z,11.29
2022-12-08T08:57:19.469Z,11.18
2022-12-08T09:02:25.691Z,11.07
2022-12-08T09:07:29.108Z,10.70
2022-12-08T09:12:33.887Z,10.70
2022-12-08T09:17:38.175Z,11.01
2022-12-08T09:22:41.655Z,10.99
2022-12-08T09:27:46.898Z,11.14
2022-12-08T09:32:50.312Z,11.28
2022-12-08T09:37:53.697Z,11.37
2022-12-08T09:43:26.204Z,10.98
2022-12-08T09:48:36.916Z,11.10
2022-12-08T09:53:43.868Z,11.15
2022-12-08T09:58:52.646Z,10.98
2022-12-08T10:03:56.447Z,11.11
2022-12-08T10:09:04.548Z,10.96
2022-12-08T10:14:16.842Z,11.21
2022-12-08T10:19:22.412Z,11.31
2022-12-08T10:24:28.056Z,11.32
2022-12-08T10:29:32.803Z,11.48
2022-12-08T10:34:36.173Z,11.35
2022-12-08T10:39:43.676Z,11.64
2022-12-08T10:44:56.955Z,11.49
2022-12-08T10:50:18.958Z,11.47
2022-12-08T10:55:23.200Z,11.69
2022-12-08T11:00:29.132Z,11.77
2022-12-08T11:05:34.978Z,11.74
2022-12-08T11:10:44.066Z,10.52
2022-12-08T11:15:48.878Z,11.86
2022-12-08T11:21:01.694Z,11.87
2022-12-08T11:26:11.683Z,11.51
2022-12-08T11:31:24.071Z,11.35
2022-12-08T11:36:28.602Z,11.56
2022-12-08T11:41:35.584Z,11.73
2022-12-08T11:46:45.051Z,11.19
2022-12-08T11:51:54.581Z,11.74
2022-12-08T11:57:00.521Z,11.84
2022-12-08T12:02:06.545Z,11.60
2022-12-08T12:07:26.562Z,11.44
2022-12-08T12:12:43.931Z,11.26
2022-12-08T12:17:52.016Z,10.81
2022-12-08T12:22:59.183Z,11.58
2022-12-08T12:28:04.867Z,11.54
2022-12-08T12:33:13.402Z,11.32
2022-12-08T12:38:40.233Z,11.94
2022-12-08T12:44:25.084Z,11.48
2022-12-08T12:49:51.061Z,11.38
2022-12-08T12:55:42.240Z,11.19
2022-12-08T13:00:46.996Z,11.66
2022-12-08T13:05:52.817Z,11.80
2022-12-08T13:11:01.065Z,11.18
2022-12-08T13:16:19.246Z,11.58
2022-12-08T13:21:25.060Z,11.28
2022-12-08T13:26:29.185Z,11.31
2022-12-08T13:31:46.628Z,11.81
2022-12-08T13:37:02.482Z,11.94
2022-12-08T13:42:08.585Z,11.28
2022-12-08T13:47:33.411Z,11.10
2022-12-08T13:58:06.579Z,10.93
2022-12-08T14:03:14.203Z,11.29
2022-12-08T14:08:57.070Z,10.60
2022-12-08T14:13:45.637Z,11.13
2022-12-08T14:18:52.278Z,11.30
2022-12-08T14:23:55.730Z,11.42
2022-12-08T14:28:59.232Z,11.29
2022-12-08T14:34:04.141Z,11.49
2022-12-08T14:39:07.650Z,11.72
2022-12-08T14:44:24.412Z,11.73
2022-12-08T14:49:36.430Z,11.77
2022-12-08T14:54:40.611Z,11.75
2022-12-08T14:59:44.702Z,11.81
2022-12-08T15:04:50.936Z,11.84
2022-12-08T15:10:20.486Z,11.88
2022-12-08T15:15:24.572Z,11.88
2022-12-08T15:20:35.613Z,11.67
2022-12-08T15:25:39.303Z,11.81
2022-12-08T15:30:42.925Z,11.76
2022-12-08T15:35:48.431Z,11.80
2022-12-08T15:40:52.340Z,11.79
2022-12-08T15:46:00.253Z,11.68
2022-12-08T15:51:05.355Z,11.74
2022-12-08T16:01:32.965Z,11.58
2022-12-08T16:07:19.782Z,11.49
2022-12-08T16:12:19.261Z,11.36
2022-12-08T16:17:22.760Z,11.39
2022-12-08T16:28:12.475Z,11.38
2022-12-08T16:33:17.713Z,11.36
2022-12-08T16:38:22.681Z,11.26
2022-12-08T16:43:26.284Z,11.15
2022-12-08T16:48:29.788Z,11.10
2022-12-08T16:53:34.623Z,11.01
2022-12-08T16:58:38.090Z,10.83
2022-12-08T17:03:51.620Z,10.79
2022-12-08T17:09:06.280Z,10.72
2022-12-08T17:14:10.105Z,10.61
2022-12-08T17:19:15.344Z,10.47
2022-12-08T17:24:22.226Z,10.37
2022-12-08T17:29:26.092Z,10.21
2022-12-08T17:34:29.526Z,9.98
2022-12-08T17:39:34.424Z,9.99
2022-12-08T17:44:37.948Z,9.97
2022-12-08T17:49:41.421Z,9.88
2022-12-08T17:54:46.279Z,9.70
2022-12-08T17:59:49.734Z,9.63
2022-12-08T18:04:53.148Z,9.48
2022-12-08T18:09:58.014Z,9.35
2022-12-08T18:15:01.439Z,9.23
2022-12-08T18:20:06.350Z,9.16
2022-12-08T18:25:12.180Z,9.27
2022-12-08T18:30:18.009Z,9.26
2022-12-08T18:35:21.520Z,9.06
2022-12-08T18:40:26.423Z,8.99
2022-12-08T18:45:29.867Z,8.81
2022-12-08T18:50:33.392Z,8.71
2022-12-08T18:55:39.672Z,8.58
2022-12-08T19:00:43.311Z,8.46
2022-12-08T19:05:46.857Z,8.38
2022-12-08T19:10:51.753Z,8.25
2022-12-08T19:15:55.375Z,8.15
2022-12-08T19:20:59.614Z,8.16
2022-12-08T19:26:05.041Z,8.14
2022-12-08T19:31:09.772Z,8.14
2022-12-08T19:36:17.948Z,8.19
2022-12-08T19:41:52.735Z,8.08
2022-12-08T19:46:56.973Z,8.00
2022-12-08T19:52:00.701Z,7.91
2022-12-08T19:57:06.077Z,7.80
2022-12-08T20:02:11.154Z,7.72
2022-12-08T20:07:14.743Z,7.68
2022-12-08T20:12:19.531Z,7.66
2022-12-08T20:17:22.972Z,7.56
2022-12-08T20:22:26.458Z,7.44
2022-12-08T20:27:31.487Z,7.34
2022-12-08T20:32:34.889Z,7.20
2022-12-08T20:37:38.255Z,7.27
2022-12-08T20:42:43.361Z,7.35
2022-12-08T20:47:46.697Z,7.40
2022-12-08T20:52:50.129Z,7.41
2022-12-08T20:57:55.137Z,7.39
2022-12-08T21:02:58.685Z,7.40
2022-12-08T21:08:02.454Z,7.43
2022-12-08T21:13:08.137Z,7.38
2022-12-08T21:18:11.656Z,7.25
2022-12-08T21:23:15.500Z,7.17
2022-12-08T21:28:20.306Z,7.09
2022-12-08T21:33:23.764Z,7.02
2022-12-08T21:38:28.356Z,6.93
2022-12-08T21:43:33.253Z,6.81
2022-12-08T21:48:36.908Z,6.70
2022-12-08T21:53:40.478Z,6.74
2022-12-08T21:58:45.263Z,6.65
2022-12-08T22:03:48.816Z,6.60
2022-12-08T22:08:52.448Z,6.57
2022-12-08T22:13:57.322Z,6.53
2022-12-08T22:19:01.072Z,6.50
2022-12-08T22:24:04.607Z,6.46
2022-12-08T22:29:09.940Z,6.38
2022-12-08T22:34:14.415Z,6.34
2022-12-08T22:39:17.883Z,6.25
2022-12-08T22:44:22.711Z,6.27
2022-12-08T22:49:26.444Z,6.23
2022-12-08T22:54:29.861Z,6.17
2022-12-08T22:59:34.789Z,6.11
2022-12-08T23:04:38.492Z,6.07
2022-12-08T23:09:42.219Z,5.99
2022-12-08T23:14:47.923Z,5.97
2022-12-08T23:19:52.356Z,5.93
2022-12-08T23:24:55.756Z,5.87
2022-12-08T23:30:00.533Z,5.83
2022-12-08T23:35:03.990Z,5.77
2022-12-08T23:40:08.885Z,5.76
2022-12-08T23:45:14.134Z,5.72
2022-12-08T23:50:17.665Z,5.66
2022-12-08T23:55:21.176Z,5.67
